createdAt,value
2018-09-30T00:02:14.284Z,64.90
2018-09-30T00:04:43.137Z,64.70
2018-09-30T00:07:12.019Z,64.80
2018-09-30T00:09:40.915Z,64.80
2018-09-30T00:12:10.057Z,65.30
2018-09-30T00:14:38.907Z,65.30
2018-09-30T00:17:07.840Z,65.20
2018-09-30T00:19:36.654Z,65.50
2018-09-30T00:22:05.605Z,65.50
2018-09-30T00:24:39.632Z,65.80
2018-09-30T00:27:13.770Z,65.60
2018-09-30T00:29:42.913Z,66.00
2018-09-30T00:32:11.797Z,66.40
2018-09-30T00:34:40.532Z,65.50
2018-09-30T00:37:09.385Z,65.80
2018-09-30T00:39:38.213Z,65.70
2018-09-30T00:42:07.497Z,65.30
2018-09-30T00:44:36.300Z,65.60
2018-09-30T00:47:05.226Z,65.30
2018-09-30T00:49:34.156Z,65.00
2018-09-30T00:52:03.014Z,64.80
2018-09-30T00:54:31.984Z,65.20
2018-09-30T00:57:00.772Z,65.20
2018-09-30T00:59:29.697Z,64.60
2018-09-30T01:01:58.565Z,65.50
2018-09-30T01:04:27.520Z,65.20
2018-09-30T01:06:56.401Z,65.80
2018-09-30T01:09:25.248Z,65.60
2018-09-30T01:11:54.104Z,65.80
2018-09-30T01:14:23.136Z,66.00
2018-09-30T01:16:51.908Z,66.20
2018-09-30T01:19:20.812Z,66.50
2018-09-30T01:21:49.704Z,65.80
2018-09-30T01:24:18.624Z,65.80
2018-09-30T01:26:47.780Z,66.00
2018-09-30T01:29:16.688Z,66.60
2018-09-30T01:31:45.521Z,66.60
2018-09-30T01:34:14.378Z,66.50
2018-09-30T01:36:43.253Z,66.50
2018-09-30T01:39:12.252Z,66.50
2018-09-30T01:41:41.472Z,66.40
2018-09-30T01:44:10.285Z,66.20
2018-09-30T01:46:39.156Z,66.00
2018-09-30T01:49:08.047Z,66.80
2018-09-30T01:51:36.936Z,67.00
2018-09-30T01:54:05.798Z,66.70
2018-09-30T01:56:34.616Z,66.80
2018-09-30T01:59:04.119Z,67.00
2018-09-30T02:01:33.429Z,67.30
2018-09-30T02:04:02.246Z,67.20
2018-09-30T02:06:31.318Z,67.20
2018-09-30T02:09:00.147Z,67.40
2018-09-30T02:11:28.907Z,67.50
2018-09-30T02:13:57.738Z,67.80
2018-09-30T02:16:26.624Z,67.80
2018-09-30T02:18:55.319Z,67.80
2018-09-30T02:21:24.168Z,67.90
2018-09-30T02:23:52.954Z,67.90
2018-09-30T02:26:21.785Z,67.70
2018-09-30T02:28:50.632Z,67.80
2018-09-30T02:31:19.446Z,68.30
2018-09-30T02:33:48.383Z,68.30
2018-09-30T02:36:17.224Z,67.70
2018-09-30T02:38:46.109Z,67.80
2018-09-30T02:41:14.960Z,68.30
2018-09-30T02:43:43.802Z,68.30
2018-09-30T02:46:12.751Z,68.50
2018-09-30T02:48:41.633Z,68.90
2018-09-30T02:51:10.464Z,68.00
2018-09-30T02:53:39.447Z,68.20
2018-09-30T02:56:08.243Z,67.90
2018-09-30T02:58:37.152Z,68.20
2018-09-30T03:01:05.996Z,68.40
2018-09-30T03:03:34.833Z,68.70
2018-09-30T03:06:04.199Z,68.60
2018-09-30T03:08:38.396Z,69.00
2018-09-30T03:11:07.886Z,68.90
2018-09-30T03:13:36.738Z,68.50
2018-09-30T03:16:05.717Z,68.70
2018-09-30T03:18:34.759Z,69.00
2018-09-30T03:21:03.811Z,69.00
2018-09-30T03:23:32.759Z,69.40
2018-09-30T03:26:01.654Z,69.10
2018-09-30T03:28:30.612Z,68.50
2018-09-30T03:30:59.562Z,68.60
2018-09-30T03:33:28.481Z,68.60
2018-09-30T03:35:57.466Z,68.70
2018-09-30T03:38:27.373Z,68.80
2018-09-30T03:40:54.940Z,68.90
2018-09-30T03:43:22.474Z,68.90
2018-09-30T03:45:50.162Z,68.60
2018-09-30T03:48:17.716Z,68.90
2018-09-30T03:50:45.229Z,69.50
2018-09-30T03:53:12.804Z,69.20
2018-09-30T03:55:40.329Z,69.60
2018-09-30T03:58:07.905Z,69.70
2018-09-30T04:00:36.757Z,69.00
2018-09-30T04:03:05.705Z,68.90
2018-09-30T04:05:34.532Z,68.90
2018-09-30T04:08:03.756Z,69.10
2018-09-30T04:10:32.652Z,69.20
2018-09-30T04:13:01.515Z,69.60
2018-09-30T04:15:30.412Z,70.20
2018-09-30T04:17:59.397Z,70.30
2018-09-30T04:20:28.341Z,70.50
2018-09-30T04:22:57.216Z,70.20
2018-09-30T04:25:26.108Z,70.00
2018-09-30T04:27:54.988Z,69.80
2018-09-30T04:30:23.842Z,69.90
2018-09-30T04:32:53.193Z,69.50
2018-09-30T04:35:22.053Z,70.20
2018-09-30T04:37:51.821Z,70.00
2018-09-30T04:40:20.930Z,68.80
2018-09-30T04:42:49.933Z,68.80
2018-09-30T04:45:18.871Z,69.50
2018-09-30T04:47:47.722Z,69.50
2018-09-30T04:50:16.610Z,69.90
2018-09-30T04:52:45.820Z,70.40
2018-09-30T04:55:14.712Z,70.50
2018-09-30T04:57:43.591Z,70.40
2018-09-30T05:00:12.517Z,70.50
2018-09-30T05:02:41.505Z,70.80
2018-09-30T05:05:10.385Z,71.00
2018-09-30T05:07:39.330Z,70.80
2018-09-30T05:10:08.309Z,70.20
2018-09-30T05:12:37.196Z,70.20
2018-09-30T05:15:06.188Z,70.10
2018-09-30T05:17:35.345Z,70.60
2018-09-30T05:20:04.339Z,70.20
2018-09-30T05:22:33.280Z,69.60
2018-09-30T05:25:02.256Z,70.10
2018-09-30T05:27:31.116Z,70.10
2018-09-30T05:29:59.995Z,70.20
2018-09-30T05:32:28.980Z,70.40
2018-09-30T05:34:57.837Z,70.20
2018-09-30T05:37:26.761Z,70.30
2018-09-30T05:39:55.912Z,70.30
2018-09-30T05:42:24.871Z,70.40
2018-09-30T05:44:53.784Z,70.50
2018-09-30T05:47:22.754Z,70.70
2018-09-30T05:49:51.863Z,71.00
2018-09-30T05:52:20.781Z,71.20
2018-09-30T05:54:50.481Z,71.10
2018-09-30T05:57:19.481Z,71.40
2018-09-30T05:59:49.340Z,71.60
2018-09-30T06:02:18.329Z,71.30
2018-09-30T06:04:47.113Z,71.50
2018-09-30T06:07:16.217Z,71.90
2018-09-30T06:09:45.131Z,71.60
2018-09-30T06:12:15.065Z,71.60
2018-09-30T06:14:44.049Z,71.70
2018-09-30T06:17:12.939Z,71.70
2018-09-30T06:19:41.920Z,71.40
2018-09-30T06:22:10.807Z,71.30
2018-09-30T06:24:39.756Z,71.80
2018-09-30T06:27:08.627Z,72.30
2018-09-30T06:29:37.496Z,72.40
2018-09-30T06:32:06.457Z,72.40
2018-09-30T06:34:35.664Z,71.20
2018-09-30T06:37:04.599Z,71.00
2018-09-30T06:39:33.437Z,70.90
2018-09-30T06:42:02.422Z,70.60
2018-09-30T06:44:31.500Z,70.80
2018-09-30T06:47:00.332Z,70.80
2018-09-30T06:49:29.305Z,70.60
2018-09-30T06:51:58.230Z,70.40
2018-09-30T06:54:27.045Z,70.30
2018-09-30T06:56:55.940Z,70.30
2018-09-30T06:59:24.970Z,70.00
2018-09-30T07:01:53.884Z,69.20
2018-09-30T07:04:22.819Z,69.60
2018-09-30T07:06:51.643Z,69.60
2018-09-30T07:09:20.853Z,68.40
2018-09-30T07:11:49.701Z,67.80
2018-09-30T07:14:18.643Z,67.40
2018-09-30T07:16:47.595Z,67.50
2018-09-30T07:19:16.487Z,68.00
2018-09-30T07:21:45.346Z,68.60
2018-09-30T07:24:15.646Z,68.90
2018-09-30T07:26:44.525Z,68.70
2018-09-30T07:29:13.461Z,67.40
2018-09-30T07:31:42.383Z,66.60
2018-09-30T07:34:11.321Z,65.60
2018-09-30T07:36:40.496Z,65.60
2018-09-30T07:39:10.413Z,65.70
2018-09-30T07:41:39.420Z,65.20
2018-09-30T07:44:08.437Z,65.00
2018-09-30T07:46:37.426Z,65.20
2018-09-30T07:49:06.363Z,65.90
2018-09-30T07:51:35.354Z,64.20
2018-09-30T07:54:04.261Z,62.90
2018-09-30T07:56:33.177Z,62.60
2018-09-30T07:59:02.450Z,62.10
2018-09-30T08:01:31.349Z,60.00
2018-09-30T08:04:00.336Z,59.30
2018-09-30T08:06:29.341Z,58.40
2018-09-30T08:08:58.219Z,58.70
2018-09-30T08:11:27.085Z,58.80
2018-09-30T08:13:55.948Z,58.70
2018-09-30T08:16:24.837Z,58.00
2018-09-30T08:18:53.892Z,58.00
2018-09-30T08:21:22.823Z,58.30
2018-09-30T08:23:51.738Z,58.50
2018-09-30T08:26:20.704Z,59.20
2018-09-30T08:28:49.563Z,59.30
2018-09-30T08:31:19.041Z,60.10
2018-09-30T08:33:47.924Z,60.10
2018-09-30T08:36:16.869Z,60.50
2018-09-30T08:38:46.771Z,60.10
2018-09-30T08:41:16.777Z,60.10
2018-09-30T08:43:45.739Z,58.30
2018-09-30T08:46:14.602Z,56.90
2018-09-30T08:48:43.564Z,56.40
2018-09-30T08:51:12.565Z,55.60
2018-09-30T08:53:42.355Z,55.60
2018-09-30T08:56:11.405Z,56.20
2018-09-30T08:58:40.432Z,57.00
2018-09-30T09:01:09.440Z,57.30
2018-09-30T09:03:39.240Z,57.50
2018-09-30T09:06:09.262Z,57.50
2018-09-30T09:08:38.159Z,57.70
2018-09-30T09:11:07.417Z,58.30
2018-09-30T09:13:36.456Z,59.30
2018-09-30T09:16:05.545Z,60.10
2018-09-30T09:18:34.583Z,60.30
2018-09-30T09:21:05.113Z,60.60
2018-09-30T09:23:33.984Z,61.40
2018-09-30T09:26:03.279Z,62.00
2018-09-30T09:28:32.272Z,62.10
2018-09-30T09:31:01.209Z,62.00
2018-09-30T09:33:30.213Z,61.40
2018-09-30T09:36:00.197Z,60.70
2018-09-30T09:38:30.283Z,60.70
2018-09-30T09:40:59.162Z,60.50
2018-09-30T09:43:28.160Z,60.00
2018-09-30T09:45:57.044Z,60.10
2018-09-30T09:48:28.687Z,60.70
2018-09-30T09:50:57.568Z,61.20
2018-09-30T09:53:26.636Z,61.70
2018-09-30T09:55:55.536Z,62.40
2018-09-30T09:58:25.244Z,63.30
2018-09-30T10:00:55.245Z,63.30
2018-09-30T10:03:24.283Z,63.90
2018-09-30T10:05:53.841Z,63.70
2018-09-30T10:08:22.801Z,64.00
2018-09-30T10:10:55.788Z,63.80
2018-09-30T10:13:24.793Z,64.30
2018-09-30T10:15:53.876Z,64.50
2018-09-30T10:18:22.907Z,63.50
2018-09-30T10:20:51.770Z,63.80
2018-09-30T10:23:20.842Z,63.90
2018-09-30T10:25:49.979Z,63.80
2018-09-30T10:28:18.937Z,63.10
2018-09-30T10:30:47.976Z,63.40
2018-09-30T10:33:17.860Z,62.60
2018-09-30T10:35:46.816Z,62.50
2018-09-30T10:38:15.916Z,61.00
2018-09-30T10:40:44.870Z,59.30
2018-09-30T10:43:13.922Z,58.40
2018-09-30T10:45:43.006Z,57.40
2018-09-30T10:48:11.947Z,56.50
2018-09-30T10:50:40.908Z,55.20
2018-09-30T10:53:09.832Z,54.60
2018-09-30T10:55:38.791Z,53.70
2018-09-30T10:58:07.845Z,53.60
2018-09-30T11:00:36.685Z,53.40
2018-09-30T11:03:05.734Z,53.60
2018-09-30T11:05:34.759Z,53.90
2018-09-30T11:08:03.696Z,53.50
2018-09-30T11:10:32.609Z,53.00
2018-09-30T11:13:01.536Z,53.30
2018-09-30T11:15:30.476Z,53.80
2018-09-30T11:17:59.459Z,54.90
2018-09-30T11:20:29.021Z,55.50
2018-09-30T11:22:58.840Z,55.90
2018-09-30T11:25:27.722Z,56.30
2018-09-30T11:27:56.821Z,56.60
2018-09-30T11:30:25.839Z,56.70
2018-09-30T11:32:54.725Z,57.70
2018-09-30T11:35:24.343Z,58.30
2018-09-30T11:37:55.106Z,58.80
2018-09-30T11:40:23.288Z,58.50
2018-09-30T11:42:50.871Z,58.80
2018-09-30T11:45:18.446Z,59.60
2018-09-30T11:47:46.101Z,60.40
2018-09-30T11:50:13.972Z,61.20
2018-09-30T11:52:41.490Z,61.90
2018-09-30T11:55:09.062Z,62.10
2018-09-30T11:57:36.588Z,62.30
2018-09-30T12:00:04.104Z,62.90
2018-09-30T12:02:31.623Z,62.60
2018-09-30T12:04:59.226Z,62.30
2018-09-30T12:07:26.709Z,62.70
2018-09-30T12:09:54.192Z,62.10
2018-09-30T12:12:21.964Z,63.20
2018-09-30T12:14:49.478Z,63.10
2018-09-30T12:17:16.969Z,63.10
2018-09-30T12:19:44.717Z,63.50
2018-09-30T12:22:12.192Z,63.70
2018-09-30T12:24:39.655Z,64.00
2018-09-30T12:27:07.196Z,64.40
2018-09-30T12:29:34.682Z,64.10
2018-09-30T12:32:02.229Z,64.50
2018-09-30T12:34:29.985Z,64.50
2018-09-30T12:36:57.717Z,64.60
2018-09-30T12:39:25.323Z,64.10
2018-09-30T12:41:54.077Z,64.60
2018-09-30T12:44:22.885Z,64.00
2018-09-30T12:46:51.857Z,64.90
2018-09-30T12:49:20.649Z,65.00
2018-09-30T12:51:49.463Z,64.70
2018-09-30T12:54:18.282Z,65.60
2018-09-30T12:56:47.062Z,65.80
2018-09-30T12:59:15.889Z,65.70
2018-09-30T13:01:44.681Z,65.60
2018-09-30T13:04:13.554Z,65.30
2018-09-30T13:06:42.384Z,65.70
2018-09-30T13:09:11.520Z,65.90
2018-09-30T13:11:40.320Z,66.10
2018-09-30T13:14:09.276Z,66.50
2018-09-30T13:16:38.199Z,66.00
2018-09-30T13:19:08.289Z,65.40
2018-09-30T13:21:37.085Z,66.20
2018-09-30T13:24:06.082Z,66.20
2018-09-30T13:26:34.995Z,66.50
2018-09-30T13:29:03.830Z,66.50
2018-09-30T13:31:32.659Z,66.50
2018-09-30T13:34:01.494Z,66.30
2018-09-30T13:36:30.332Z,66.00
2018-09-30T13:38:59.109Z,66.40
2018-09-30T13:41:27.950Z,66.50
2018-09-30T13:43:56.709Z,66.60
2018-09-30T13:46:25.589Z,66.20
2018-09-30T13:48:54.418Z,66.30
2018-09-30T13:51:23.260Z,67.00
2018-09-30T13:53:52.030Z,67.00
2018-09-30T13:56:20.845Z,67.00
2018-09-30T13:58:49.648Z,67.20
2018-09-30T14:01:18.502Z,67.40
2018-09-30T14:03:47.272Z,67.60
2018-09-30T14:06:16.068Z,67.70
2018-09-30T14:08:45.889Z,67.50
2018-09-30T14:11:14.691Z,67.80
2018-09-30T14:13:43.578Z,67.60
2018-09-30T14:16:12.458Z,67.80
2018-09-30T14:18:41.301Z,67.60
2018-09-30T14:21:10.181Z,67.20
2018-09-30T14:23:38.965Z,67.30
2018-09-30T14:26:08.141Z,67.80
2018-09-30T14:28:37.216Z,67.90
2018-09-30T14:31:06.114Z,68.50
2018-09-30T14:33:34.944Z,68.50
2018-09-30T14:36:04.037Z,68.30
2018-09-30T14:38:32.837Z,68.40
2018-09-30T14:41:01.605Z,68.50
2018-09-30T14:43:30.486Z,68.40
2018-09-30T14:45:59.365Z,68.10
2018-09-30T14:48:28.205Z,68.20
2018-09-30T14:50:57.059Z,68.40
2018-09-30T14:53:25.912Z,68.70
2018-09-30T14:55:54.980Z,68.50
2018-09-30T14:58:23.884Z,68.70
2018-09-30T15:00:52.695Z,68.60
2018-09-30T15:03:21.818Z,68.60
2018-09-30T15:05:50.618Z,68.70
2018-09-30T15:08:19.411Z,68.70
2018-09-30T15:10:48.476Z,68.60
2018-09-30T15:13:17.520Z,68.50
2018-09-30T15:15:46.363Z,68.50
2018-09-30T15:18:15.175Z,68.70
2018-09-30T15:20:43.971Z,68.70
2018-09-30T15:23:12.764Z,68.90
2018-09-30T15:25:41.589Z,68.70
2018-09-30T15:28:10.464Z,68.50
2018-09-30T15:30:39.444Z,68.50
2018-09-30T15:33:08.374Z,68.70
2018-09-30T15:35:37.232Z,68.80
2018-09-30T15:38:06.156Z,68.60
2018-09-30T15:40:34.963Z,68.50
2018-09-30T15:43:03.884Z,68.50
2018-09-30T15:45:32.657Z,68.50
2018-09-30T15:48:01.423Z,68.20
2018-09-30T15:50:30.248Z,68.00
2018-09-30T15:52:59.098Z,68.30
2018-09-30T15:55:27.896Z,68.30
2018-09-30T15:57:56.674Z,68.40
2018-09-30T16:00:25.476Z,68.60
2018-09-30T16:02:54.247Z,68.60
2018-09-30T16:05:23.102Z,68.60
2018-09-30T16:07:51.952Z,68.80
2018-09-30T16:10:20.710Z,69.00
2018-09-30T16:12:49.525Z,68.80
2018-09-30T16:15:18.319Z,68.90
2018-09-30T16:17:47.169Z,68.80
2018-09-30T16:20:16.048Z,69.20
2018-09-30T16:22:44.920Z,69.10
2018-09-30T16:25:13.782Z,69.10
2018-09-30T16:27:42.644Z,69.50
2018-09-30T16:30:11.458Z,69.60
2018-09-30T16:32:40.343Z,69.70
2018-09-30T16:35:09.362Z,69.80
2018-09-30T16:37:38.181Z,70.10
2018-09-30T16:40:07.144Z,70.10
2018-09-30T16:42:35.993Z,70.10
2018-09-30T16:45:04.959Z,70.30
2018-09-30T16:47:33.818Z,70.30
2018-09-30T16:50:02.897Z,70.40
2018-09-30T16:52:31.760Z,70.70
2018-09-30T16:55:00.637Z,71.20
2018-09-30T16:57:29.560Z,71.40
2018-09-30T16:59:58.355Z,71.60
2018-09-30T17:02:27.238Z,71.60
2018-09-30T17:04:56.144Z,72.00
2018-09-30T17:07:25.071Z,72.40
2018-09-30T17:09:53.895Z,73.70
2018-09-30T17:12:22.737Z,73.70
2018-09-30T17:14:51.574Z,73.90
2018-09-30T17:17:20.485Z,73.40
2018-09-30T17:19:49.331Z,73.10
2018-09-30T17:22:18.167Z,73.30
2018-09-30T17:24:47.042Z,73.20
2018-09-30T17:27:15.941Z,73.30
2018-09-30T17:29:44.796Z,73.80
2018-09-30T17:32:13.605Z,73.90
2018-09-30T17:34:42.551Z,73.90
2018-09-30T17:37:11.412Z,74.00
2018-09-30T17:39:40.172Z,74.10
2018-09-30T17:42:09.012Z,74.10
2018-09-30T17:44:38.362Z,74.40
2018-09-30T17:47:07.267Z,74.80
2018-09-30T17:49:36.144Z,74.90
2018-09-30T17:52:05.249Z,75.10
2018-09-30T17:54:34.135Z,75.30
2018-09-30T17:57:03.008Z,75.30
2018-09-30T17:59:31.939Z,75.50
2018-09-30T18:02:00.756Z,75.60
2018-09-30T18:04:29.654Z,75.90
2018-09-30T18:06:58.604Z,75.90
2018-09-30T18:09:28.499Z,76.30
2018-09-30T18:11:57.368Z,76.40
2018-09-30T18:14:26.227Z,77.00
2018-09-30T18:16:55.161Z,76.70
2018-09-30T18:19:24.056Z,76.50
2018-09-30T18:21:53.018Z,76.20
2018-09-30T18:24:23.381Z,76.70
2018-09-30T18:26:53.090Z,76.40
2018-09-30T18:38:01.697Z,77.00
2018-09-30T18:40:37.973Z,77.30
2018-09-30T18:43:07.268Z,76.80
2018-09-30T18:45:36.190Z,77.50
2018-09-30T18:48:25.056Z,77.80
2018-09-30T18:50:52.600Z,78.00
2018-09-30T18:53:20.209Z,78.00
2018-09-30T18:55:47.885Z,77.80
2018-09-30T18:58:15.537Z,77.90
2018-09-30T19:03:36.212Z,78.00
2018-09-30T19:06:03.997Z,78.00
2018-09-30T19:08:31.637Z,78.20
2018-09-30T19:11:03.809Z,78.40
2018-09-30T19:13:32.795Z,78.50
2018-09-30T19:16:00.455Z,78.90
2018-09-30T19:18:28.021Z,79.10
2018-09-30T19:20:57.286Z,79.00
2018-09-30T19:23:26.225Z,79.10
2018-09-30T19:28:57.903Z,79.10
2018-09-30T19:31:26.645Z,79.10
2018-09-30T19:33:55.512Z,79.40
2018-09-30T19:36:24.687Z,79.20
2018-09-30T19:38:53.629Z,79.60
2018-09-30T19:41:22.572Z,79.70
2018-09-30T19:43:52.421Z,79.10
2018-09-30T19:46:21.408Z,79.00
2018-09-30T19:51:42.875Z,79.50
2018-09-30T19:54:12.941Z,79.70
2018-09-30T19:56:41.927Z,79.20
2018-09-30T19:59:11.250Z,79.40
2018-09-30T20:01:40.376Z,79.50
2018-09-30T20:04:09.280Z,79.50
2018-09-30T20:09:29.973Z,79.40
2018-09-30T20:15:07.486Z,79.30
2018-09-30T20:17:36.294Z,79.60
2018-09-30T20:20:05.380Z,80.10
2018-09-30T20:22:34.228Z,80.50
2018-09-30T20:25:03.160Z,80.40
2018-09-30T20:27:31.964Z,80.40
2018-09-30T20:30:00.951Z,80.60
2018-09-30T20:32:29.837Z,80.60
2018-09-30T20:34:58.652Z,80.70
2018-09-30T20:37:27.488Z,80.80
2018-09-30T20:39:56.410Z,81.40
2018-09-30T20:42:25.460Z,81.60
2018-09-30T20:44:54.264Z,82.00
2018-09-30T20:47:23.495Z,82.20
2018-09-30T20:49:52.359Z,82.20
2018-09-30T20:52:21.623Z,82.80
2018-09-30T20:54:50.595Z,82.40
2018-09-30T20:57:20.569Z,82.40
2018-09-30T20:59:49.811Z,83.40
2018-09-30T21:02:19.020Z,83.80
2018-09-30T21:04:47.943Z,83.60
2018-09-30T21:07:17.196Z,83.90
2018-09-30T21:09:46.092Z,83.70
2018-09-30T21:12:15.053Z,83.90
2018-09-30T21:14:43.937Z,83.40
2018-09-30T21:17:12.763Z,83.00
2018-09-30T21:19:41.653Z,83.30
2018-09-30T21:22:10.561Z,83.40
2018-09-30T21:24:39.380Z,83.30
2018-09-30T21:27:08.316Z,83.60
2018-09-30T21:29:38.199Z,83.50
2018-09-30T21:32:07.136Z,83.10
2018-09-30T21:34:36.104Z,83.50
2018-09-30T21:37:04.903Z,82.80
2018-09-30T21:39:33.723Z,83.10
2018-09-30T21:42:02.749Z,82.90
2018-09-30T21:44:31.592Z,83.20
2018-09-30T21:47:01.500Z,83.60
2018-09-30T21:49:30.481Z,84.00
2018-09-30T21:51:59.237Z,84.10
2018-09-30T21:54:28.127Z,84.60
2018-09-30T21:56:57.026Z,84.30
2018-09-30T21:59:25.860Z,84.10
2018-09-30T22:01:54.807Z,84.10
2018-09-30T22:04:23.966Z,84.10
2018-09-30T22:06:52.847Z,84.10
2018-09-30T22:09:21.743Z,84.40
2018-09-30T22:11:50.585Z,84.00
2018-09-30T22:14:19.463Z,84.10
2018-09-30T22:16:48.207Z,84.50
2018-09-30T22:19:17.263Z,84.20
2018-09-30T22:21:46.516Z,84.00
2018-09-30T22:24:15.448Z,83.80
2018-09-30T22:26:44.253Z,83.90
2018-09-30T22:29:14.883Z,83.80
2018-09-30T22:31:43.801Z,84.00
2018-09-30T22:34:12.812Z,84.00
2018-09-30T22:36:41.762Z,84.20
2018-09-30T22:39:10.619Z,84.10
2018-09-30T22:41:39.542Z,84.20
2018-09-30T22:44:08.435Z,84.80
2018-09-30T22:46:37.378Z,84.60
2018-09-30T22:49:06.227Z,85.10
2018-09-30T22:51:35.241Z,84.80
2018-09-30T22:54:05.147Z,84.50
2018-09-30T22:56:33.963Z,84.30
2018-09-30T22:59:03.771Z,84.50
2018-09-30T23:01:32.567Z,84.80
2018-09-30T23:04:01.342Z,84.90
2018-09-30T23:06:30.332Z,84.70
2018-09-30T23:08:59.263Z,84.70
2018-09-30T23:11:28.123Z,84.50
2018-09-30T23:13:57.085Z,84.40
2018-09-30T23:16:26.014Z,84.50
2018-09-30T23:18:55.133Z,84.80
2018-09-30T23:21:24.095Z,84.70
2018-09-30T23:23:52.991Z,84.60
2018-09-30T23:26:21.806Z,84.30
2018-09-30T23:28:50.599Z,84.10
2018-09-30T23:31:19.400Z,84.10
2018-09-30T23:33:48.207Z,84.10
2018-09-30T23:36:17.030Z,84.50
2018-09-30T23:38:45.775Z,84.50
2018-09-30T23:41:14.612Z,84.70
2018-09-30T23:43:43.552Z,85.10
2018-09-30T23:46:12.259Z,85.10
2018-09-30T23:48:41.091Z,85.10
2018-09-30T23:51:10.005Z,84.70
2018-09-30T23:53:38.867Z,84.70
2018-09-30T23:56:08.061Z,84.90
2018-09-30T23:58:37.043Z,85.20
